Time;durP1;ratioP1;P1;durP2;ratioP2;P2;SDS_P1;SDS_P2;PMS_P1;PMS_P2;Temp;Humidity;BMP_temperature;BMP_pressure;BME280_temperature;BME280_humidity;BME280_pressure;Samples;Min_cycle;Max_cycle;Signal;HPM_P1;HPM_P2
2023/01/04 00:00:11;;;;;;;519.03;491.38;;;7.10;99.90;;;;;;5083694;28;20417;-60
2023/01/04 00:02:36;;;;;;;525.22;497.17;;;7.10;99.90;;;;;;5084665;28;20392;-59
2023/01/04 00:05:02;;;;;;;523.97;496.30;;;7.10;99.90;;;;;;5083513;28;20390;-59
2023/01/04 00:07:29;;;;;;;497.63;471.58;;;7.00;99.90;;;;;;5086285;28;20412;-58
2023/01/04 00:09:55;;;;;;;510.70;484.00;;;7.00;99.90;;;;;;5083741;28;20410;-59
2023/01/04 00:12:21;;;;;;;527.35;499.20;;;7.10;99.90;;;;;;5084791;28;20378;-62
2023/01/04 00:14:47;;;;;;;522.53;494.63;;;7.10;99.90;;;;;;5083509;28;20374;-60
2023/01/04 00:17:13;;;;;;;503.83;477.20;;;7.10;99.90;;;;;;5084023;28;20397;-58
2023/01/04 00:19:39;;;;;;;513.37;486.30;;;7.10;99.90;;;;;;5081366;28;20463;-60
2023/01/04 00:22:04;;;;;;;506.25;479.20;;;7.10;99.90;;;;;;5082426;28;20374;-60
2023/01/04 00:24:30;;;;;;;513.45;485.95;;;7.10;99.90;;;;;;5081374;28;20736;-60
2023/01/04 00:26:55;;;;;;;513.78;486.60;;;7.10;99.90;;;;;;5078739;28;20712;-60
2023/01/04 00:29:21;;;;;;;523.87;496.13;;;7.20;99.90;;;;;;5079491;28;20544;-60
2023/01/04 00:31:47;;;;;;;493.60;467.93;;;7.10;99.90;;;;;;5081151;28;20688;-60
2023/01/04 00:34:15;;;;;;;504.67;477.90;;;7.20;99.90;;;;;;5082379;28;20472;-60
2023/01/04 00:36:40;;;;;;;478.70;453.80;;;7.10;99.90;;;;;;5083573;28;20542;-60
2023/01/04 00:39:11;;;;;;;443.08;420.50;;;7.10;99.90;;;;;;5084825;28;20398;-60
2023/01/04 00:41:39;;;;;;;445.85;423.40;;;7.10;99.90;;;;;;5085557;28;20397;-60
2023/01/04 00:44:06;;;;;;;497.35;471.05;;;7.10;99.90;;;;;;5087528;28;20616;-57
2023/01/04 00:46:32;;;;;;;476.63;452.17;;;7.10;99.90;;;;;;5087231;28;20386;-60
2023/01/04 00:48:58;;;;;;;448.90;426.15;;;7.10;99.90;;;;;;5088725;28;20421;-59
2023/01/04 00:51:24;;;;;;;474.33;449.90;;;7.10;99.90;;;;;;5088571;28;20408;-60
2023/01/04 00:53:51;;;;;;;459.75;436.13;;;7.20;99.90;;;;;;5087003;28;20421;-58
2023/01/04 00:56:17;;;;;;;484.65;459.77;;;7.20;99.90;;;;;;5087110;28;20398;-60
2023/01/04 00:58:43;;;;;;;448.88;426.38;;;7.20;99.90;;;;;;5088134;28;20385;-60
2023/01/04 01:01:08;;;;;;;436.47;414.67;;;7.20;99.90;;;;;;5086745;28;20393;-60
2023/01/04 01:03:34;;;;;;;477.00;452.42;;;7.20;99.90;;;;;;5084753;28;20379;-60
2023/01/04 01:06:06;;;;;;;471.02;446.75;;;7.30;99.90;;;;;;5084061;28;20409;-60
2023/01/04 01:08:32;;;;;;;496.50;470.67;;;7.20;99.90;;;;;;5088114;28;20389;-60
2023/01/04 01:11:08;;;;;;;511.67;484.80;;;7.30;99.90;;;;;;5085449;28;20787;-60
2023/01/04 01:13:35;;;;;;;458.77;435.23;;;7.30;99.90;;;;;;5086900;28;20656;-60
2023/01/04 01:16:05;;;;;;;456.80;433.53;;;7.30;99.90;;;;;;5088504;28;20684;-60
2023/01/04 01:18:32;;;;;;;492.25;466.38;;;7.30;99.90;;;;;;5090536;28;20372;-59
2023/01/04 01:20:58;;;;;;;487.80;462.52;;;7.40;99.90;;;;;;5092894;28;20376;-60
2023/01/04 01:23:24;;;;;;;445.57;422.90;;;7.40;99.90;;;;;;5092729;28;20369;-62
2023/01/04 01:25:50;;;;;;;495.63;469.67;;;7.40;99.90;;;;;;5092399;28;20382;-58
2023/01/04 01:28:15;;;;;;;468.90;444.97;;;7.40;99.90;;;;;;5094225;28;20622;-59
2023/01/04 01:30:42;;;;;;;491.17;465.07;;;7.40;99.90;;;;;;5111258;28;20379;-59
2023/01/04 01:33:09;;;;;;;536.97;508.17;;;7.40;99.90;;;;;;5112461;28;20384;-59
2023/01/04 01:35:35;;;;;;;511.40;484.10;;;7.40;99.90;;;;;;5094796;28;20384;-59
2023/01/04 01:38:01;;;;;;;525.97;498.07;;;7.40;99.90;;;;;;5094748;28;20644;-61
2023/01/04 01:40:27;;;;;;;522.65;494.67;;;7.50;99.90;;;;;;5094605;28;20403;-58
2023/01/04 01:42:53;;;;;;;487.95;462.67;;;7.50;99.90;;;;;;5115880;28;20393;-60
2023/01/04 01:45:25;;;;;;;502.23;476.17;;;7.50;99.90;;;;;;5096705;28;20464;-60
2023/01/04 01:47:50;;;;;;;524.75;497.27;;;7.50;99.90;;;;;;5095108;28;20388;-59
2023/01/04 01:50:23;;;;;;;541.53;512.47;;;7.50;99.90;;;;;;5094339;28;20383;-60
2023/01/04 01:52:50;;;;;;;554.55;524.65;;;7.50;99.90;;;;;;5112295;28;20381;-59
2023/01/04 01:55:16;;;;;;;539.28;510.20;;;7.50;99.90;;;;;;5094574;28;20404;-60
2023/01/04 01:57:43;;;;;;;556.95;526.85;;;7.50;99.90;;;;;;5094454;28;20392;-60
2023/01/04 02:00:12;;;;;;;511.93;484.73;;;7.60;99.90;;;;;;5095886;28;20388;-59
2023/01/04 02:02:46;;;;;;;569.08;538.22;;;7.60;99.90;;;;;;5094864;28;20372;-59
2023/01/04 02:05:12;;;;;;;551.60;521.22;;;7.60;99.90;;;;;;5092451;28;20384;-60
2023/01/04 02:07:38;;;;;;;569.58;538.25;;;7.60;99.90;;;;;;5092695;28;20388;-60
2023/01/04 02:10:04;;;;;;;566.70;535.70;;;7.60;99.90;;;;;;5112086;28;20412;-60
2023/01/04 02:12:30;;;;;;;556.05;525.40;;;7.60;99.90;;;;;;5094280;28;20388;-59
2023/01/04 02:14:55;;;;;;;578.85;546.88;;;7.60;99.90;;;;;;5094344;28;20395;-57
2023/01/04 02:17:26;;;;;;;564.67;533.23;;;7.60;99.90;;;;;;5095150;28;20688;-58
2023/01/04 02:20:26;;;;;;;575.55;543.40;;;7.60;99.90;;;;;;5094382;28;20734;-60
2023/01/04 02:23:12;;;;;;;547.95;517.25;;;7.60;99.90;;;;;;5094296;28;20387;-59
2023/01/04 02:26:00;;;;;;;497.52;471.17;;;7.70;99.90;;;;;;5094326;28;20400;-60
2023/01/04 02:28:50;;;;;;;485.38;459.88;;;7.60;99.90;;;;;;5094031;28;20403;-62
2023/01/04 02:31:41;;;;;;;476.98;452.02;;;7.60;99.90;;;;;;5096599;28;20384;-60
2023/01/04 02:34:27;;;;;;;474.77;450.15;;;7.70;99.90;;;;;;5097327;28;20645;-59
2023/01/04 02:37:25;;;;;;;464.55;440.50;;;7.70;99.90;;;;;;5097745;28;20427;-59
2023/01/04 02:39:56;;;;;;;455.73;432.08;;;7.60;99.90;;;;;;5095694;28;20389;-59
2023/01/04 02:44:51;;;;;;;466.48;442.52;;;7.60;99.90;;;;;;5097062;28;20806;-60
2023/01/04 02:45:21;;;;;;;442.27;419.63;;;7.70;99.90;;;;;;5115627;28;20381;-59
2023/01/04 02:50:39;;;;;;;462.48;438.50;;;7.60;99.90;;;;;;5112917;28;20457;-59
2023/01/04 02:53:13;;;;;;;466.05;441.88;;;7.70;99.90;;;;;;5112017;28;20376;-57
2023/01/04 02:55:51;;;;;;;457.63;434.33;;;7.70;99.90;;;;;;5095747;28;20396;-59
2023/01/04 02:58:28;;;;;;;470.88;446.48;;;7.70;99.90;;;;;;5094867;28;20479;-59
2023/01/04 03:07:20;;;;;;;491.52;465.58;;;7.70;99.90;;;;;;5116580;28;20702;-59
2023/01/04 03:09:49;;;;;;;474.70;449.38;;;7.80;99.90;;;;;;5115581;28;20424;-59
2023/01/04 03:12:31;;;;;;;508.20;481.02;;;7.80;99.90;;;;;;5096169;28;20469;-58
2023/01/04 03:15:21;;;;;;;477.40;452.27;;;7.80;99.90;;;;;;5114897;28;20392;-57
2023/01/04 03:17:56;;;;;;;476.75;451.33;;;7.80;99.90;;;;;;5098301;28;20400;-59
2023/01/04 03:20:23;;;;;;;473.92;449.35;;;7.80;99.90;;;;;;5098170;28;20822;-58
2023/01/04 03:37:13;;;;;;;510.40;483.00;;;7.80;99.90;;;;;;5115806;28;20653;-59
2023/01/04 03:48:37;;;;;;;456.77;433.00;;;7.70;99.90;;;;;;5115225;28;20780;-59
2023/01/04 03:51:15;;;;;;;437.40;414.65;;;7.70;99.90;;;;;;5097383;28;20372;-59
2023/01/04 03:53:58;;;;;;;507.65;480.55;;;7.60;99.90;;;;;;5114920;28;20482;-57
2023/01/04 03:56:27;;;;;;;490.25;464.13;;;7.60;99.90;;;;;;5095980;28;20396;-59
2023/01/04 03:58:53;;;;;;;466.58;442.13;;;7.60;99.90;;;;;;5097166;28;20490;-59
2023/01/04 04:01:20;;;;;;;468.80;444.20;;;7.50;99.90;;;;;;5097048;28;20804;-59
2023/01/04 04:09:14;;;;;;;547.47;515.60;;;7.40;99.90;;;;;;5114276;28;20480;-60
2023/01/04 04:11:40;;;;;;;513.35;483.05;;;7.40;99.90;;;;;;5095352;28;20462;-57
2023/01/04 04:14:11;;;;;;;480.92;453.45;;;7.30;99.90;;;;;;5114432;28;20449;-59
2023/01/04 04:16:37;;;;;;;446.47;422.37;;;7.30;99.90;;;;;;5097946;28;20396;-58
2023/01/04 04:19:03;;;;;;;429.43;407.77;;;7.20;99.90;;;;;;5098125;28;20373;-59
2023/01/04 04:21:28;;;;;;;396.10;375.67;;;7.20;99.90;;;;;;5096367;28;20768;-57
2023/01/04 04:23:54;;;;;;;395.17;375.37;;;7.20;99.90;;;;;;5095666;28;20468;-59
2023/01/04 04:26:20;;;;;;;353.30;335.95;;;7.10;99.90;;;;;;5095733;28;20838;-59
2023/01/04 04:28:46;;;;;;;327.60;311.57;;;7.10;99.90;;;;;;5092876;28;20380;-60
2023/01/04 04:31:12;;;;;;;362.50;344.73;;;7.10;99.90;;;;;;5095198;28;20479;-59
2023/01/04 04:33:38;;;;;;;352.02;333.52;;;7.10;99.90;;;;;;5095693;28;20510;-58
2023/01/04 04:36:04;;;;;;;354.25;336.08;;;7.00;99.90;;;;;;5095693;28;20389;-60
2023/01/04 04:38:30;;;;;;;387.50;367.03;;;7.00;99.90;;;;;;5095504;28;20480;-60
2023/01/04 04:43:39;;;;;;;382.13;360.95;;;7.00;99.90;;;;;;5111278;28;20980;-59
2023/01/04 04:46:05;;;;;;;375.10;354.30;;;7.00;99.90;;;;;;5111332;28;20483;-58
2023/01/04 04:48:31;;;;;;;346.20;326.77;;;6.90;99.90;;;;;;5110342;28;20391;-62
2023/01/04 04:50:57;;;;;;;365.07;343.90;;;6.90;99.90;;;;;;5092587;28;20624;-60
2023/01/04 04:53:22;;;;;;;386.07;363.83;;;6.90;99.90;;;;;;5092437;28;20402;-59
2023/01/04 04:55:52;;;;;;;346.00;327.40;;;6.80;99.90;;;;;;5094149;28;20395;-59
2023/01/04 04:58:19;;;;;;;375.88;354.75;;;6.80;99.90;;;;;;5094756;28;20383;-59
2023/01/04 05:00:45;;;;;;;390.95;369.17;;;6.80;99.90;;;;;;5093250;28;20396;-59
2023/01/04 05:03:10;;;;;;;418.27;393.85;;;6.80;99.90;;;;;;5094393;28;20846;-59
2023/01/04 05:05:36;;;;;;;389.83;367.20;;;6.80;99.90;;;;;;5094697;28;20732;-57
2023/01/04 05:08:02;;;;;;;360.40;339.00;;;6.80;99.90;;;;;;5111887;28;20384;-58
2023/01/04 05:10:27;;;;;;;363.00;343.17;;;6.80;99.90;;;;;;5093209;28;20416;-60
2023/01/04 05:12:58;;;;;;;332.93;313.83;;;6.80;99.90;;;;;;5110912;28;20392;-56
2023/01/04 05:15:36;;;;;;;350.20;330.65;;;6.80;99.90;;;;;;5094190;28;20953;-59
2023/01/04 05:18:02;;;;;;;399.55;375.98;;;6.80;99.90;;;;;;5094576;28;20396;-60
2023/01/04 05:20:28;;;;;;;366.43;345.90;;;6.80;99.90;;;;;;5111895;28;20394;-60
2023/01/04 05:22:53;;;;;;;372.00;352.27;;;6.80;99.90;;;;;;5094450;28;20636;-60
2023/01/04 05:25:19;;;;;;;379.60;358.23;;;6.80;99.90;;;;;;5110605;28;20424;-59
2023/01/04 05:27:45;;;;;;;441.73;414.90;;;6.80;99.90;;;;;;5092936;28;20477;-59
2023/01/04 05:32:57;;;;;;;461.08;434.23;;;6.80;99.90;;;;;;5112260;28;20383;-59
2023/01/04 05:35:22;;;;;;;497.60;467.33;;;6.90;99.90;;;;;;5094386;28;20384;-58
2023/01/04 05:37:48;;;;;;;450.67;424.70;;;6.90;99.90;;;;;;5094629;28;20499;-60
2023/01/04 05:40:13;;;;;;;454.47;428.97;;;6.90;99.90;;;;;;5095478;28;20676;-59
2023/01/04 05:42:39;;;;;;;464.97;439.90;;;6.90;99.90;;;;;;5113586;28;20636;-59
2023/01/04 05:45:05;;;;;;;499.35;471.15;;;6.90;99.90;;;;;;5095646;28;20471;-60
2023/01/04 05:47:31;;;;;;;432.35;409.52;;;6.90;99.90;;;;;;5094754;28;20642;-60
2023/01/04 05:49:57;;;;;;;515.63;486.05;;;6.90;99.90;;;;;;5112130;28;20418;-60
2023/01/04 05:52:22;;;;;;;502.30;473.75;;;6.90;99.90;;;;;;5092646;28;20468;-60
2023/01/04 05:54:48;;;;;;;575.45;540.15;;;6.90;99.90;;;;;;5091266;28;20408;-60
2023/01/04 05:57:14;;;;;;;609.58;572.05;;;6.90;99.90;;;;;;5090671;28;20827;-60
2023/01/04 05:59:39;;;;;;;650.25;609.45;;;6.90;99.90;;;;;;5090857;28;20726;-60
2023/01/04 06:02:06;;;;;;;715.43;667.53;;;6.90;99.90;;;;;;5091399;28;20663;-60
2023/01/04 06:04:31;;;;;;;696.53;649.90;;;6.90;99.90;;;;;;5090437;28;20978;-60
2023/01/04 06:06:57;;;;;;;731.35;681.22;;;6.90;99.90;;;;;;5092420;28;20867;-60
2023/01/04 06:09:25;;;;;;;725.75;677.08;;;6.90;99.90;;;;;;5091219;28;20772;-63
2023/01/04 06:11:51;;;;;;;712.00;664.55;;;7.00;99.90;;;;;;5091029;28;20766;-58
2023/01/04 06:14:16;;;;;;;765.15;713.00;;;7.00;99.90;;;;;;5089868;28;20396;-60
2023/01/04 06:16:42;;;;;;;892.25;828.30;;;7.00;99.90;;;;;;5089987;28;20835;-60
2023/01/04 06:19:07;;;;;;;927.30;858.70;;;7.10;99.90;;;;;;5090402;28;20412;-60
2023/01/04 06:21:33;;;;;;;915.73;848.47;;;7.10;99.90;;;;;;5090776;28;20388;-60
2023/01/04 06:23:58;;;;;;;925.63;857.90;;;7.10;99.90;;;;;;5090243;28;20679;-59
2023/01/04 06:26:24;;;;;;;875.63;813.27;;;7.20;99.90;;;;;;5109855;28;20376;-60
2023/01/04 06:28:50;;;;;;;867.67;806.33;;;7.20;99.90;;;;;;5110087;28;20412;-62
2023/01/04 06:31:15;;;;;;;880.10;817.90;;;7.20;99.90;;;;;;5093378;28;20471;-60
2023/01/04 06:33:41;;;;;;;855.13;796.33;;;7.30;99.90;;;;;;5093247;28;20659;-58
2023/01/04 06:36:07;;;;;;;823.45;767.28;;;7.20;99.90;;;;;;5093915;28;20442;-58
2023/01/04 06:38:33;;;;;;;809.95;755.25;;;7.30;99.90;;;;;;5093803;28;20446;-60
2023/01/04 06:40:59;;;;;;;913.30;848.58;;;7.30;99.90;;;;;;5110113;28;20372;-59
2023/01/04 06:43:25;;;;;;;906.40;841.95;;;7.40;99.90;;;;;;5091442;28;20796;-59
2023/01/04 06:45:51;;;;;;;900.40;836.83;;;7.40;99.90;;;;;;5092524;28;20445;-59
2023/01/04 06:48:16;;;;;;;894.40;830.78;;;7.40;99.90;;;;;;5093883;28;20681;-59
2023/01/04 06:50:42;;;;;;;864.10;803.30;;;7.50;99.90;;;;;;5092943;28;20373;-61
2023/01/04 06:53:08;;;;;;;889.70;827.93;;;7.50;99.90;;;;;;5092316;28;20807;-60
2023/01/04 06:55:34;;;;;;;877.80;818.38;;;7.60;99.90;;;;;;5089758;28;20776;-60
2023/01/04 06:57:59;;;;;;;874.10;814.17;;;7.60;99.90;;;;;;5089190;28;20411;-61
2023/01/04 07:00:25;;;;;;;806.73;753.43;;;7.60;99.90;;;;;;5087147;28;20380;-60
2023/01/04 07:02:51;;;;;;;864.87;804.90;;;7.70;99.90;;;;;;5086342;28;20368;-61
2023/01/04 07:05:17;;;;;;;851.67;793.90;;;7.70;99.90;;;;;;5104066;28;20380;-60
2023/01/04 07:07:43;;;;;;;858.78;800.60;;;7.70;99.90;;;;;;5083613;28;20684;-59
2023/01/04 07:10:09;;;;;;;868.50;809.40;;;7.80;99.90;;;;;;5083729;28;20450;-61
2023/01/04 07:12:35;;;;;;;843.28;786.78;;;7.80;99.90;;;;;;5085238;28;20392;-60
2023/01/04 07:15:00;;;;;;;879.40;818.30;;;7.80;99.90;;;;;;5084997;28;20701;-61
2023/01/04 07:17:26;;;;;;;858.13;800.33;;;7.90;99.90;;;;;;5103566;28;20707;-61
2023/01/04 07:19:52;;;;;;;791.05;739.65;;;7.80;99.90;;;;;;5104436;28;20708;-60
2023/01/04 07:22:18;;;;;;;816.22;762.72;;;7.90;99.90;;;;;;5086558;28;20678;-60
2023/01/04 07:24:43;;;;;;;773.72;723.92;;;7.90;99.90;;;;;;5104689;28;20473;-61
2023/01/04 07:27:10;;;;;;;823.78;768.50;;;7.90;99.90;;;;;;5085363;28;20433;-61
2023/01/04 07:29:35;;;;;;;834.97;779.20;;;8.00;99.90;;;;;;5087108;28;20720;-61
2023/01/04 07:32:01;;;;;;;803.17;750.63;;;8.00;99.90;;;;;;5105031;28;20492;-60
2023/01/04 07:34:27;;;;;;;807.10;753.90;;;8.10;99.90;;;;;;5087022;28;20384;-60
2023/01/04 07:36:53;;;;;;;814.97;761.30;;;8.10;99.90;;;;;;5105246;28;20707;-60
2023/01/04 07:39:19;;;;;;;781.63;732.85;;;8.10;99.90;;;;;;5105348;28;21062;-60
2023/01/04 07:41:46;;;;;;;812.30;759.35;;;8.10;99.90;;;;;;5106156;28;20372;-60
2023/01/04 07:44:12;;;;;;;810.13;758.50;;;8.20;99.90;;;;;;5085884;28;20405;-60
2023/01/04 07:46:38;;;;;;;784.70;735.72;;;8.20;99.90;;;;;;5083163;28;20384;-60
2023/01/04 07:49:05;;;;;;;821.28;767.88;;;8.20;99.90;;;;;;5099620;28;20703;-60
2023/01/04 07:51:31;;;;;;;816.75;765.00;;;8.30;99.90;;;;;;5083178;28;20807;-60
2023/01/04 07:53:58;;;;;;;825.15;772.80;;;8.30;99.90;;;;;;5082243;28;20742;-60
2023/01/04 07:56:23;;;;;;;799.88;750.42;;;8.40;99.90;;;;;;5079926;28;20507;-60
2023/01/04 07:58:49;;;;;;;847.40;793.33;;;8.40;99.90;;;;;;5078560;28;20479;-61
2023/01/04 08:01:17;;;;;;;798.40;749.22;;;8.40;99.90;;;;;;5077867;28;20393;-61
2023/01/04 08:03:44;;;;;;;797.63;746.88;;;8.40;99.90;;;;;;5075974;28;20409;-60
2023/01/04 08:06:12;;;;;;;823.40;772.15;;;8.50;99.90;;;;;;5076657;28;20625;-61
2023/01/04 08:08:38;;;;;;;845.67;790.15;;;8.50;99.90;;;;;;5076252;28;20629;-60
2023/01/04 08:11:07;;;;;;;809.35;758.92;;;8.50;99.90;;;;;;5074932;28;20682;-61
2023/01/04 08:13:32;;;;;;;819.63;765.60;;;8.60;99.90;;;;;;5078230;28;20852;-60
2023/01/04 08:15:58;;;;;;;812.80;760.17;;;8.60;99.90;;;;;;5077903;28;20372;-60
2023/01/04 08:18:24;;;;;;;850.00;795.45;;;8.70;99.90;;;;;;5079422;28;20861;-61
2023/01/04 08:20:49;;;;;;;824.70;772.97;;;8.70;99.90;;;;;;5079208;28;20383;-60
2023/01/04 08:23:15;;;;;;;801.60;751.63;;;8.70;99.90;;;;;;5080097;28;20716;-61
2023/01/04 08:25:41;;;;;;;821.33;769.17;;;8.70;99.90;;;;;;5077992;28;20396;-60
2023/01/04 08:28:07;;;;;;;808.38;757.78;;;8.70;99.90;;;;;;5079053;28;20437;-61
2023/01/04 08:30:32;;;;;;;784.10;735.40;;;8.70;99.90;;;;;;5078451;28;20400;-60
2023/01/04 08:32:58;;;;;;;801.90;751.60;;;8.80;99.90;;;;;;5077912;28;20668;-61
2023/01/04 08:35:23;;;;;;;832.40;778.73;;;8.80;99.90;;;;;;5077675;28;20448;-60
2023/01/04 08:37:49;;;;;;;843.17;788.60;;;8.80;99.90;;;;;;5076790;28;20400;-60
2023/01/04 08:40:15;;;;;;;808.75;758.05;;;8.90;99.90;;;;;;5078008;28;20384;-61
2023/01/04 08:42:40;;;;;;;961.30;893.58;;;8.90;99.90;;;;;;5079961;28;20597;-60
2023/01/04 08:45:07;;;;;;;976.25;907.85;;;8.90;99.90;;;;;;5080634;28;20376;-61
2023/01/04 08:47:33;;;;;;;921.70;857.90;;;9.00;99.90;;;;;;5080660;28;20747;-61
2023/01/04 08:49:59;;;;;;;943.93;878.10;;;9.00;99.90;;;;;;5081179;28;20558;-62
2023/01/04 08:52:25;;;;;;;930.30;865.65;;;9.10;99.90;;;;;;5081908;28;20806;-62
2023/01/04 08:54:50;;;;;;;933.75;869.72;;;9.10;99.90;;;;;;5082138;28;20392;-61
2023/01/04 08:57:17;;;;;;;925.05;860.80;;;9.10;99.90;;;;;;5080876;28;20597;-61
2023/01/04 08:59:45;;;;;;;921.00;857.92;;;9.10;99.90;;;;;;5096367;28;20760;-61
2023/01/04 09:02:23;;;;;;;944.47;876.83;;;9.20;99.90;;;;;;5075693;28;20384;-62
2023/01/04 09:04:50;;;;;;;944.60;878.28;;;9.10;99.90;;;;;;5070803;28;20932;-63
2023/01/04 09:07:16;;;;;;;932.38;866.05;;;9.20;99.90;;;;;;5069964;28;20399;-61
2023/01/04 09:09:42;;;;;;;943.83;876.38;;;9.20;99.90;;;;;;5070106;28;20417;-61
2023/01/04 09:12:08;;;;;;;932.03;866.20;;;9.20;99.90;;;;;;5072348;28;20447;-61
2023/01/04 09:14:34;;;;;;;926.07;861.37;;;9.30;99.90;;;;;;5072136;28;20570;-61
2023/01/04 09:17:00;;;;;;;912.07;848.27;;;9.30;99.90;;;;;;5073909;28;20470;-61
2023/01/04 09:19:25;;;;;;;911.50;847.97;;;9.30;99.90;;;;;;5075237;28;20496;-61
2023/01/04 09:21:51;;;;;;;938.80;872.35;;;9.40;99.90;;;;;;5072132;28;20636;-63
2023/01/04 09:24:16;;;;;;;899.77;837.20;;;9.40;99.90;;;;;;5076343;28;20406;-60
2023/01/04 09:26:46;;;;;;;881.53;819.97;;;9.40;99.90;;;;;;5073170;28;20583;-61
2023/01/04 09:29:12;;;;;;;906.53;842.00;;;9.40;99.90;;;;;;5072065;28;20392;-61
2023/01/04 09:31:37;;;;;;;892.70;829.30;;;9.40;99.90;;;;;;5073878;28;20386;-61
2023/01/04 09:34:03;;;;;;;870.53;808.88;;;9.40;99.90;;;;;;5074710;28;20393;-61
2023/01/04 09:36:29;;;;;;;848.17;788.65;;;9.50;99.90;;;;;;5072462;28;20398;-62
2023/01/04 09:38:54;;;;;;;850.92;790.42;;;9.50;99.90;;;;;;5072774;28;20394;-61
2023/01/04 09:41:26;;;;;;;898.78;834.42;;;9.50;99.90;;;;;;5074089;28;20385;-61
2023/01/04 09:44:03;;;;;;;957.28;886.38;;;9.60;99.90;;;;;;5078432;28;20393;-61
2023/01/04 09:46:42;;;;;;;952.58;882.40;;;9.60;99.90;;;;;;5081388;28;20470;-61
2023/01/04 09:49:29;;;;;;;953.35;883.53;;;9.60;99.90;;;;;;5083284;28;20585;-61
2023/01/04 09:52:21;;;;;;;960.20;888.28;;;9.60;99.90;;;;;;5081065;28;20374;-61
2023/01/04 09:54:53;;;;;;;942.03;871.75;;;9.60;99.90;;;;;;5081566;28;20779;-61
2023/01/04 09:57:26;;;;;;;947.05;876.38;;;9.60;99.90;;;;;;5082739;28;20410;-61
2023/01/04 10:00:19;;;;;;;958.25;887.47;;;9.70;99.90;;;;;;5084343;28;20484;-61
2023/01/04 10:02:55;;;;;;;938.22;868.53;;;9.70;99.90;;;;;;5082855;28;20392;-61
2023/01/04 10:05:26;;;;;;;945.03;875.30;;;9.70;99.90;;;;;;5079316;28;20393;-62
2023/01/04 10:07:52;;;;;;;903.72;839.22;;;9.70;99.90;;;;;;5078508;28;20386;-62
2023/01/04 10:10:31;;;;;;;889.22;826.53;;;9.70;99.90;;;;;;5073876;28;20406;-62
2023/01/04 10:13:27;;;;;;;892.53;830.45;;;9.70;99.90;;;;;;5074620;28;20401;-59
2023/01/04 10:15:58;;;;;;;929.60;866.10;;;9.80;99.90;;;;;;5072824;28;20417;-57
2023/01/04 10:18:38;;;;;;;957.22;888.67;;;9.90;99.90;;;;;;5076865;28;20410;-60
2023/01/04 10:21:12;;;;;;;956.50;888.75;;;9.90;99.90;;;;;;5081454;28;20412;-61
2023/01/04 10:23:55;;;;;;;916.10;851.58;;;9.90;99.90;;;;;;5079760;28;20476;-62
2023/01/04 10:26:45;;;;;;;913.38;849.40;;;9.90;99.90;;;;;;5081739;28;20374;-62
2023/01/04 10:29:35;;;;;;;944.67;878.00;;;9.90;99.90;;;;;;5083824;28;20462;-61
2023/01/04 10:32:04;;;;;;;906.58;842.53;;;9.90;99.90;;;;;;5084237;28;20416;-62
2023/01/04 10:34:37;;;;;;;900.17;836.95;;;9.90;99.90;;;;;;5085112;28;20386;-59
2023/01/04 10:37:10;;;;;;;881.65;818.03;;;9.90;99.90;;;;;;5087242;28;20462;-62
2023/01/04 10:39:36;;;;;;;814.60;758.67;;;9.90;99.90;;;;;;5087260;28;20810;-61
2023/01/04 10:42:19;;;;;;;807.95;752.47;;;9.90;99.90;;;;;;5085830;28;20386;-62
2023/01/04 10:45:09;;;;;;;880.47;818.80;;;10.00;99.90;;;;;;5083662;28;20386;-61
2023/01/04 10:48:01;;;;;;;866.05;804.30;;;10.00;99.90;;;;;;5083735;28;20417;-61
2023/01/04 10:50:55;;;;;;;846.83;788.05;;;10.00;99.90;;;;;;5082234;28;20865;-61
2023/01/04 10:53:46;;;;;;;854.90;795.60;;;10.10;99.90;;;;;;5080846;28;20382;-61
2023/01/04 10:56:24;;;;;;;826.75;769.90;;;10.00;99.90;;;;;;5080376;28;20378;-63
2023/01/04 10:59:03;;;;;;;834.57;776.47;;;10.10;99.90;;;;;;5079233;28;20378;-60
2023/01/04 11:01:38;;;;;;;829.05;771.13;;;10.10;99.90;;;;;;5084107;28;20393;-62
2023/01/04 11:04:19;;;;;;;817.53;760.72;;;10.10;99.90;;;;;;5085006;28;20459;-61
2023/01/04 11:06:55;;;;;;;827.08;769.90;;;10.10;99.90;;;;;;5084867;28;20461;-62
2023/01/04 11:09:26;;;;;;;817.28;760.85;;;10.10;99.90;;;;;;5085865;28;20517;-61
2023/01/04 11:11:55;;;;;;;811.33;755.77;;;10.20;99.90;;;;;;5088826;28;20524;-61
2023/01/04 11:14:23;;;;;;;814.35;758.22;;;10.20;99.90;;;;;;5088030;28;20469;-61
2023/01/04 11:16:52;;;;;;;783.63;729.95;;;10.20;99.90;;;;;;5087993;28;20499;-61
2023/01/04 11:19:18;;;;;;;745.72;695.08;;;10.20;99.90;;;;;;5085702;28;20808;-61
2023/01/04 11:21:50;;;;;;;738.40;688.95;;;10.20;99.90;;;;;;5086643;28;20381;-62
2023/01/04 11:24:16;;;;;;;779.58;725.22;;;10.20;99.90;;;;;;5085022;28;20397;-61
2023/01/04 11:26:45;;;;;;;785.23;730.90;;;10.20;99.90;;;;;;5085496;28;20897;-61
2023/01/04 11:29:32;;;;;;;797.88;742.97;;;10.20;99.90;;;;;;5085003;28;20442;-61
2023/01/04 11:32:10;;;;;;;822.25;765.67;;;10.30;99.90;;;;;;5085236;28;20397;-62
2023/01/04 11:35:03;;;;;;;815.10;758.80;;;10.30;99.90;;;;;;5087287;28;20382;-60
2023/01/04 11:37:36;;;;;;;824.85;767.63;;;10.30;99.90;;;;;;5086345;28;20405;-62
2023/01/04 11:40:23;;;;;;;808.08;753.03;;;10.30;99.90;;;;;;5085861;28;20425;-61
2023/01/04 11:42:53;;;;;;;880.80;819.95;;;10.40;99.90;;;;;;5082097;28;20998;-62
2023/01/04 11:45:26;;;;;;;838.40;781.05;;;10.40;99.90;;;;;;5078908;28;20385;-61
2023/01/04 11:47:57;;;;;;;873.78;813.78;;;10.40;99.90;;;;;;5078697;28;20986;-60
2023/01/04 11:50:44;;;;;;;829.33;773.80;;;10.40;99.90;;;;;;5076687;28;20709;-61
2023/01/04 11:53:29;;;;;;;892.00;830.55;;;10.40;99.90;;;;;;5077150;28;20472;-61
2023/01/04 11:56:15;;;;;;;896.85;835.20;;;10.40;99.90;;;;;;5079304;28;20443;-62
2023/01/04 11:58:43;;;;;;;889.10;827.05;;;10.40;99.90;;;;;;5081476;28;20473;-61
2023/01/04 12:01:21;;;;;;;899.30;836.40;;;10.40;99.90;;;;;;5083504;28;21027;-61
2023/01/04 12:03:47;;;;;;;896.70;834.10;;;10.40;99.90;;;;;;5082991;28;20396;-61
2023/01/04 12:06:40;;;;;;;886.33;824.63;;;10.40;99.90;;;;;;5083753;28;20382;-61
2023/01/04 12:09:12;;;;;;;868.00;808.50;;;10.40;99.90;;;;;;5075255;28;20501;-61
2023/01/04 12:12:00;;;;;;;887.55;825.88;;;10.40;99.90;;;;;;5084705;28;20370;-62
2023/01/04 12:14:28;;;;;;;870.30;810.63;;;10.50;99.90;;;;;;5082744;28;20449;-61
2023/01/04 12:17:10;;;;;;;895.90;832.80;;;10.50;99.90;;;;;;5082210;28;20482;-60
2023/01/04 12:19:39;;;;;;;821.27;766.27;;;10.50;99.90;;;;;;5081556;28;20502;-61
2023/01/04 12:22:17;;;;;;;835.08;779.90;;;10.50;99.90;;;;;;5082484;28;20389;-60
2023/01/04 12:24:44;;;;;;;809.42;756.22;;;10.50;99.90;;;;;;5078981;28;20394;-60
2023/01/04 12:27:13;;;;;;;863.47;805.35;;;10.50;99.90;;;;;;5078276;28;20809;-61
2023/01/04 12:29:43;;;;;;;857.47;799.47;;;10.50;99.90;;;;;;5079310;28;21138;-61
2023/01/04 12:32:13;;;;;;;890.95;828.95;;;10.50;99.90;;;;;;5081744;28;20374;-63
2023/01/04 12:34:45;;;;;;;903.30;841.10;;;10.50;99.90;;;;;;5081271;28;20382;-61
2023/01/04 12:37:39;;;;;;;870.25;809.80;;;10.60;99.90;;;;;;5076184;28;20866;-60
2023/01/04 12:40:43;;;;;;;879.75;818.58;;;10.60;99.90;;;;;;5077302;28;20389;-61
2023/01/04 12:43:15;;;;;;;808.75;752.90;;;10.60;99.90;;;;;;5057868;28;20426;-61
2023/01/04 12:45:47;;;;;;;787.47;733.72;;;10.60;99.90;;;;;;5040827;28;20384;-61
2023/01/04 12:51:22;;;;;;;797.53;742.30;;;10.60;99.90;;;;;;5078680;28;20373;-61
2023/01/04 12:54:30;;;;;;;766.65;715.08;;;10.60;99.90;;;;;;5078245;28;20429;-61
2023/01/04 12:57:14;;;;;;;757.55;705.35;;;10.60;99.90;;;;;;5071932;28;20402;-60
2023/01/04 12:59:58;;;;;;;744.33;694.47;;;10.70;99.90;;;;;;5077068;28;20385;-61
2023/01/04 13:02:30;;;;;;;740.50;690.20;;;10.60;99.90;;;;;;5078820;28;20490;-61
2023/01/04 13:05:01;;;;;;;755.88;704.55;;;10.70;99.90;;;;;;5076316;28;20658;-61
2023/01/04 13:07:30;;;;;;;677.83;632.87;;;10.80;99.90;;;;;;5078852;28;21048;-60
2023/01/04 13:10:12;;;;;;;713.53;665.45;;;10.80;99.90;;;;;;5077534;28;20410;-61
2023/01/04 13:13:00;;;;;;;705.13;657.65;;;10.90;99.90;;;;;;5077376;28;20401;-60
2023/01/04 13:16:04;;;;;;;607.17;569.80;;;11.00;99.90;;;;;;5079139;28;20443;-60
2023/01/04 13:18:40;;;;;;;631.22;593.30;;;11.00;99.90;;;;;;5078121;28;20401;-60